Beaver Creek, Colorado
Current Conditions -  °F | °C
As of 9:50 PM on Sunday 25 Jan 2015 (Local Time) from KEGE Reporting Station
Clear Clear  
Wind Chill: 28°   Ceiling: Unl
Heat Index: 28°   Visibility: 10mi
Dew Point: 27°   Wind: 0mph
Humidity: 93%   Direction: NA
Pressure: 30.44"   Gusts: NA
Location:  39.6°N, 106.52°W
Report Text: KEGE 260350Z 00000KT 10SM SKC M02/M03 A3044
Loading
Personal Weather Stations






























Interactive Weather Map New forecast layout! Learn more

10-Day Weather Forecast

Advertisements
Track Severe Weather on mobile